sensor_id;sensor_type;location;lat;lon;timestamp;pressure;altitude;pressure_sealevel;temperature;humidity
10948;BME280;5526;42.070;24.752;2023-08-07T00:01:38;98153.88;;;22.84;55.96
10948;BME280;5526;42.070;24.752;2023-08-07T00:04:05;98157.47;;;22.73;56.30
10948;BME280;5526;42.070;24.752;2023-08-07T00:06:32;98157.41;;;22.69;56.86
10948;BME280;5526;42.070;24.752;2023-08-07T00:08:59;98160.25;;;22.76;56.60
10948;BME280;5526;42.070;24.752;2023-08-07T00:11:26;98166.44;;;22.80;56.67
10948;BME280;5526;42.070;24.752;2023-08-07T00:13:55;98160.44;;;22.68;57.35
10948;BME280;5526;42.070;24.752;2023-08-07T00:16:22;98150.50;;;22.68;57.57
10948;BME280;5526;42.070;24.752;2023-08-07T00:18:49;98161.81;;;22.62;57.81
10948;BME280;5526;42.070;24.752;2023-08-07T00:21:18;98165.50;;;22.54;58.07
10948;BME280;5526;42.070;24.752;2023-08-07T00:23:45;98159.78;;;22.55;58.34
10948;BME280;5526;42.070;24.752;2023-08-07T00:26:12;98157.31;;;22.47;58.77
10948;BME280;5526;42.070;24.752;2023-08-07T00:28:39;98153.31;;;22.41;58.77
10948;BME280;5526;42.070;24.752;2023-08-07T00:31:07;98163.69;;;22.42;59.10
10948;BME280;5526;42.070;24.752;2023-08-07T00:33:34;98157.25;;;22.28;59.67
10948;BME280;5526;42.070;24.752;2023-08-07T00:36:01;98156.75;;;22.07;60.77
10948;BME280;5526;42.070;24.752;2023-08-07T00:38:28;98160.03;;;22.00;61.29
10948;BME280;5526;42.070;24.752;2023-08-07T00:40:55;98157.81;;;22.02;61.28
10948;BME280;5526;42.070;24.752;2023-08-07T00:43:22;98162.66;;;21.97;61.77
10948;BME280;5526;42.070;24.752;2023-08-07T00:45:49;98170.44;;;21.86;62.13
10948;BME280;5526;42.070;24.752;2023-08-07T00:48:18;98166.09;;;21.97;61.81
10948;BME280;5526;42.070;24.752;2023-08-07T00:50:46;98169.22;;;21.99;61.78
10948;BME280;5526;42.070;24.752;2023-08-07T00:53:15;98179.16;;;21.99;62.14
10948;BME280;5526;42.070;24.752;2023-08-07T00:55:43;98176.13;;;22.00;62.03
10948;BME280;5526;42.070;24.752;2023-08-07T00:58:10;98169.22;;;21.99;62.19
10948;BME280;5526;42.070;24.752;2023-08-07T01:00:37;98187.38;;;21.90;62.98
10948;BME280;5526;42.070;24.752;2023-08-07T01:03:07;98195.31;;;21.87;63.21
10948;BME280;5526;42.070;24.752;2023-08-07T01:05:35;98205.69;;;21.88;63.17
10948;BME280;5526;42.070;24.752;2023-08-07T01:08:03;98201.22;;;21.77;63.65
10948;BME280;5526;42.070;24.752;2023-08-07T01:10:35;98208.38;;;21.73;63.96
10948;BME280;5526;42.070;24.752;2023-08-07T01:13:14;98211.81;;;21.73;63.98
10948;BME280;5526;42.070;24.752;2023-08-07T01:15:43;98205.28;;;21.59;64.68
10948;BME280;5526;42.070;24.752;2023-08-07T01:18:11;98218.69;;;21.59;64.66
10948;BME280;5526;42.070;24.752;2023-08-07T01:20:41;98224.72;;;21.56;64.96
10948;BME280;5526;42.070;24.752;2023-08-07T01:23:09;98226.34;;;21.45;65.47
10948;BME280;5526;42.070;24.752;2023-08-07T01:25:36;98226.00;;;21.46;65.65
10948;BME280;5526;42.070;24.752;2023-08-07T01:28:11;98223.50;;;21.38;66.05
10948;BME280;5526;42.070;24.752;2023-08-07T01:30:45;98218.72;;;21.31;66.45
10948;BME280;5526;42.070;24.752;2023-08-07T01:33:17;98216.81;;;21.32;66.66
10948;BME280;5526;42.070;24.752;2023-08-07T01:35:47;98219.28;;;21.25;66.82
10948;BME280;5526;42.070;24.752;2023-08-07T01:38:17;98217.94;;;21.31;67.01
10948;BME280;5526;42.070;24.752;2023-08-07T01:40:46;98239.44;;;21.34;66.70
10948;BME280;5526;42.070;24.752;2023-08-07T01:43:14;98237.81;;;21.30;67.02
10948;BME280;5526;42.070;24.752;2023-08-07T01:45:41;98243.03;;;21.26;67.28
10948;BME280;5526;42.070;24.752;2023-08-07T01:48:08;98256.41;;;21.26;67.59
10948;BME280;5526;42.070;24.752;2023-08-07T01:50:35;98245.97;;;21.21;68.05
10948;BME280;5526;42.070;24.752;2023-08-07T01:53:02;98241.28;;;21.18;68.34
10948;BME280;5526;42.070;24.752;2023-08-07T01:55:31;98249.84;;;21.24;68.60
10948;BME280;5526;42.070;24.752;2023-08-07T01:57:58;98253.75;;;21.26;68.37
10948;BME280;5526;42.070;24.752;2023-08-07T02:00:25;98236.63;;;21.15;68.41
10948;BME280;5526;42.070;24.752;2023-08-07T02:02:52;98248.16;;;21.31;68.30
10948;BME280;5526;42.070;24.752;2023-08-07T02:05:19;98258.75;;;21.28;68.71
10948;BME280;5526;42.070;24.752;2023-08-07T02:07:46;98263.25;;;21.24;68.84
10948;BME280;5526;42.070;24.752;2023-08-07T02:10:13;98261.22;;;21.21;68.97
10948;BME280;5526;42.070;24.752;2023-08-07T02:12:41;98264.28;;;21.19;68.95
10948;BME280;5526;42.070;24.752;2023-08-07T02:15:09;98248.69;;;21.09;69.45
10948;BME280;5526;42.070;24.752;2023-08-07T02:17:36;98257.50;;;21.10;69.58
10948;BME280;5526;42.070;24.752;2023-08-07T02:20:05;98255.28;;;21.00;70.14
10948;BME280;5526;42.070;24.752;2023-08-07T02:22:32;98250.72;;;21.00;70.39
10948;BME280;5526;42.070;24.752;2023-08-07T02:24:59;98252.63;;;21.00;70.44
10948;BME280;5526;42.070;24.752;2023-08-07T02:27:26;98273.69;;;21.01;70.76
10948;BME280;5526;42.070;24.752;2023-08-07T02:29:54;98272.00;;;20.97;70.78
10948;BME280;5526;42.070;24.752;2023-08-07T02:32:21;98268.91;;;20.95;70.77
10948;BME280;5526;42.070;24.752;2023-08-07T02:34:48;98270.56;;;20.99;70.55
10948;BME280;5526;42.070;24.752;2023-08-07T02:37:15;98261.75;;;20.99;70.62
10948;BME280;5526;42.070;24.752;2023-08-07T02:39:42;98268.25;;;20.98;70.72
10948;BME280;5526;42.070;24.752;2023-08-07T02:42:09;98272.34;;;20.95;70.60
10948;BME280;5526;42.070;24.752;2023-08-07T02:44:36;98270.47;;;20.96;70.54
10948;BME280;5526;42.070;24.752;2023-08-07T02:47:05;98282.84;;;21.00;70.43
10948;BME280;5526;42.070;24.752;2023-08-07T02:49:32;98278.81;;;20.94;70.60
10948;BME280;5526;42.070;24.752;2023-08-07T02:51:59;98277.28;;;20.93;70.73
10948;BME280;5526;42.070;24.752;2023-08-07T02:54:26;98278.47;;;20.96;70.79
10948;BME280;5526;42.070;24.752;2023-08-07T02:56:53;98280.81;;;20.97;70.79
10948;BME280;5526;42.070;24.752;2023-08-07T02:59:20;98286.84;;;20.94;71.01
10948;BME280;5526;42.070;24.752;2023-08-07T03:01:47;98289.97;;;20.96;71.29
10948;BME280;5526;42.070;24.752;2023-08-07T03:04:15;98287.06;;;21.01;71.13
10948;BME280;5526;42.070;24.752;2023-08-07T03:06:42;98289.41;;;20.91;71.79
10948;BME280;5526;42.070;24.752;2023-08-07T03:09:09;98298.66;;;20.93;71.86
10948;BME280;5526;42.070;24.752;2023-08-07T03:11:36;98299.09;;;20.95;71.81
10948;BME280;5526;42.070;24.752;2023-08-07T03:14:03;98296.53;;;20.87;72.41
10948;BME280;5526;42.070;24.752;2023-08-07T03:16:30;98294.09;;;20.69;73.03
10948;BME280;5526;42.070;24.752;2023-08-07T03:18:57;98286.53;;;20.59;74.03
10948;BME280;5526;42.070;24.752;2023-08-07T03:21:25;98299.56;;;20.61;74.18
10948;BME280;5526;42.070;24.752;2023-08-07T03:23:53;98302.44;;;20.68;73.88
10948;BME280;5526;42.070;24.752;2023-08-07T03:26:20;98295.44;;;20.51;74.74
10948;BME280;5526;42.070;24.752;2023-08-07T03:28:47;98295.22;;;20.68;74.18
10948;BME280;5526;42.070;24.752;2023-08-07T03:31:14;98299.78;;;20.80;73.70
10948;BME280;5526;42.070;24.752;2023-08-07T03:33:41;98293.72;;;21.07;72.67
10948;BME280;5526;42.070;24.752;2023-08-07T03:36:08;98316.22;;;21.18;71.44
10948;BME280;5526;42.070;24.752;2023-08-07T03:38:37;98304.13;;;21.36;70.63
10948;BME280;5526;42.070;24.752;2023-08-07T03:41:04;98310.25;;;21.64;69.58
10948;BME280;5526;42.070;24.752;2023-08-07T03:43:31;98306.63;;;21.84;68.94
10948;BME280;5526;42.070;24.752;2023-08-07T03:45:58;98307.22;;;21.93;68.15
10948;BME280;5526;42.070;24.752;2023-08-07T03:48:25;98308.91;;;21.98;67.85
10948;BME280;5526;42.070;24.752;2023-08-07T03:50:52;98314.78;;;22.03;67.38
10948;BME280;5526;42.070;24.752;2023-08-07T03:53:19;98316.69;;;22.18;66.74
10948;BME280;5526;42.070;24.752;2023-08-07T03:55:51;98316.78;;;22.22;65.91
10948;BME280;5526;42.070;24.752;2023-08-07T03:58:18;98318.44;;;22.26;65.82
10948;BME280;5526;42.070;24.752;2023-08-07T04:00:45;98326.28;;;22.19;65.57
10948;BME280;5526;42.070;24.752;2023-08-07T04:03:12;98330.97;;;22.22;65.36
10948;BME280;5526;42.070;24.752;2023-08-07T04:05:39;98323.81;;;22.26;64.96
10948;BME280;5526;42.070;24.752;2023-08-07T04:08:06;98316.53;;;22.27;64.50
10948;BME280;5526;42.070;24.752;2023-08-07T04:10:33;98324.41;;;22.35;64.16
10948;BME280;5526;42.070;24.752;2023-08-07T04:13:01;98326.22;;;22.31;64.47
10948;BME280;5526;42.070;24.752;2023-08-07T04:15:28;98319.94;;;22.55;63.81
10948;BME280;5526;42.070;24.752;2023-08-07T04:17:55;98329.50;;;22.71;62.61
10948;BME280;5526;42.070;24.752;2023-08-07T04:20:22;98350.28;;;22.74;61.90
10948;BME280;5526;42.070;24.752;2023-08-07T04:22:49;98350.28;;;22.90;61.72
10948;BME280;5526;42.070;24.752;2023-08-07T04:25:16;98350.31;;;23.09;61.07
10948;BME280;5526;42.070;24.752;2023-08-07T04:27:43;98350.81;;;23.30;60.30
10948;BME280;5526;42.070;24.752;2023-08-07T04:30:12;98354.53;;;23.25;60.03
10948;BME280;5526;42.070;24.752;2023-08-07T04:32:39;98356.69;;;23.35;59.94
10948;BME280;5526;42.070;24.752;2023-08-07T04:35:07;98357.31;;;23.48;59.64
10948;BME280;5526;42.070;24.752;2023-08-07T04:37:34;98359.63;;;23.49;59.44
10948;BME280;5526;42.070;24.752;2023-08-07T04:40:02;98365.09;;;23.34;59.62
10948;BME280;5526;42.070;24.752;2023-08-07T04:42:30;98360.06;;;23.32;59.83
10948;BME280;5526;42.070;24.752;2023-08-07T04:45:03;98363.97;;;23.54;59.09
10948;BME280;5526;42.070;24.752;2023-08-07T04:47:32;98364.75;;;23.54;59.00
10948;BME280;5526;42.070;24.752;2023-08-07T04:49:59;98365.25;;;23.60;58.38
10948;BME280;5526;42.070;24.752;2023-08-07T04:52:26;98359.94;;;23.63;58.14
10948;BME280;5526;42.070;24.752;2023-08-07T04:54:53;98350.31;;;23.81;57.76
10948;BME280;5526;42.070;24.752;2023-08-07T04:57:20;98357.81;;;23.91;56.87
10948;BME280;5526;42.070;24.752;2023-08-07T04:59:47;98360.13;;;24.12;56.45
10948;BME280;5526;42.070;24.752;2023-08-07T05:02:14;98373.78;;;24.03;55.80
10948;BME280;5526;42.070;24.752;2023-08-07T05:04:43;98361.44;;;23.61;56.55
10948;BME280;5526;42.070;24.752;2023-08-07T05:07:09;98371.81;;;23.81;56.18
10948;BME280;5526;42.070;24.752;2023-08-07T05:09:37;98372.53;;;23.78;55.78
10948;BME280;5526;42.070;24.752;2023-08-07T05:12:05;98374.38;;;23.74;56.08
10948;BME280;5526;42.070;24.752;2023-08-07T05:14:33;98371.22;;;23.53;56.79
10948;BME280;5526;42.070;24.752;2023-08-07T05:17:00;98375.84;;;23.53;57.14
10948;BME280;5526;42.070;24.752;2023-08-07T05:19:27;98377.09;;;23.59;57.27
10948;BME280;5526;42.070;24.752;2023-08-07T05:21:55;98387.44;;;23.57;57.41
10948;BME280;5526;42.070;24.752;2023-08-07T05:24:22;98380.97;;;23.96;56.45
10948;BME280;5526;42.070;24.752;2023-08-07T05:26:49;98384.63;;;23.88;56.77
10948;BME280;5526;42.070;24.752;2023-08-07T05:29:16;98388.06;;;23.69;57.03
10948;BME280;5526;42.070;24.752;2023-08-07T05:31:43;98390.06;;;23.72;56.94
10948;BME280;5526;42.070;24.752;2023-08-07T05:34:10;98397.75;;;23.74;56.99
10948;BME280;5526;42.070;24.752;2023-08-07T05:36:37;98403.69;;;23.83;56.95
10948;BME280;5526;42.070;24.752;2023-08-07T05:39:06;98391.47;;;23.85;56.24
10948;BME280;5526;42.070;24.752;2023-08-07T05:41:34;98403.22;;;23.77;57.02
10948;BME280;5526;42.070;24.752;2023-08-07T05:44:01;98394.97;;;24.27;55.78
10948;BME280;5526;42.070;24.752;2023-08-07T05:46:28;98397.22;;;23.84;56.52
10948;BME280;5526;42.070;24.752;2023-08-07T05:48:55;98404.63;;;24.28;55.60
10948;BME280;5526;42.070;24.752;2023-08-07T05:51:22;98403.88;;;24.31;55.47
10948;BME280;5526;42.070;24.752;2023-08-07T05:53:49;98408.44;;;24.27;55.37
10948;BME280;5526;42.070;24.752;2023-08-07T05:56:17;98405.81;;;24.53;54.56
10948;BME280;5526;42.070;24.752;2023-08-07T05:58:44;98404.31;;;24.11;55.42
10948;BME280;5526;42.070;24.752;2023-08-07T06:01:11;98393.44;;;24.26;55.32
10948;BME280;5526;42.070;24.752;2023-08-07T06:03:39;98405.16;;;24.15;55.93
10948;BME280;5526;42.070;24.752;2023-08-07T06:06:06;98393.47;;;24.30;55.78
10948;BME280;5526;42.070;24.752;2023-08-07T06:08:33;98393.38;;;24.91;54.40
10948;BME280;5526;42.070;24.752;2023-08-07T06:11:00;98402.19;;;24.88;54.12
10948;BME280;5526;42.070;24.752;2023-08-07T06:13:30;98399.56;;;24.91;53.29
10948;BME280;5526;42.070;24.752;2023-08-07T06:35:02;98393.16;;;26.14;48.85
10948;BME280;5526;42.070;24.752;2023-08-07T06:37:29;98376.13;;;25.77;50.22
10948;BME280;5526;42.070;24.752;2023-08-07T06:39:57;98388.84;;;25.47;50.57
10948;BME280;5526;42.070;24.752;2023-08-07T06:42:24;98376.72;;;25.34;51.24
10948;BME280;5526;42.070;24.752;2023-08-07T06:44:51;98378.75;;;25.40;51.38
10948;BME280;5526;42.070;24.752;2023-08-07T06:47:18;98384.06;;;25.63;50.67
10948;BME280;5526;42.070;24.752;2023-08-07T06:49:47;98373.28;;;25.63;50.46
10948;BME280;5526;42.070;24.752;2023-08-07T06:52:16;98404.66;;;26.07;49.94
10948;BME280;5526;42.070;24.752;2023-08-07T06:54:43;98387.66;;;25.74;49.76
10948;BME280;5526;42.070;24.752;2023-08-07T06:57:10;98390.25;;;25.67;49.91
10948;BME280;5526;42.070;24.752;2023-08-07T06:59:37;98388.88;;;25.80;49.45
10948;BME280;5526;42.070;24.752;2023-08-07T07:02:05;98399.94;;;26.01;49.29
10948;BME280;5526;42.070;24.752;2023-08-07T07:04:32;98394.47;;;26.30;49.01
10948;BME280;5526;42.070;24.752;2023-08-07T07:07:02;98404.56;;;26.77;48.13
10948;BME280;5526;42.070;24.752;2023-08-07T07:09:30;98405.88;;;26.53;47.66
10948;BME280;5526;42.070;24.752;2023-08-07T07:11:57;98404.91;;;26.32;48.84
10948;BME280;5526;42.070;24.752;2023-08-07T07:14:24;98409.94;;;26.73;46.95
10948;BME280;5526;42.070;24.752;2023-08-07T07:16:51;98417.97;;;26.26;46.71
10948;BME280;5526;42.070;24.752;2023-08-07T07:19:18;98411.19;;;26.83;46.17
10948;BME280;5526;42.070;24.752;2023-08-07T07:21:45;98415.50;;;26.91;46.44
10948;BME280;5526;42.070;24.752;2023-08-07T07:24:12;98410.50;;;26.53;45.28
10948;BME280;5526;42.070;24.752;2023-08-07T07:26:40;98408.44;;;26.79;45.02
10948;BME280;5526;42.070;24.752;2023-08-07T07:29:07;98410.06;;;26.47;45.96
10948;BME280;5526;42.070;24.752;2023-08-07T07:31:34;98411.78;;;26.66;45.71
10948;BME280;5526;42.070;24.752;2023-08-07T07:34:01;98410.31;;;26.32;45.88
10948;BME280;5526;42.070;24.752;2023-08-07T07:36:29;98390.06;;;26.52;45.04
10948;BME280;5526;42.070;24.752;2023-08-07T07:38:56;98410.25;;;26.68;44.14
10948;BME280;5526;42.070;24.752;2023-08-07T07:41:23;98404.84;;;26.65;44.29
10948;BME280;5526;42.070;24.752;2023-08-07T07:43:51;98406.75;;;26.64;43.97
10948;BME280;5526;42.070;24.752;2023-08-07T07:46:18;98406.59;;;26.90;43.83
10948;BME280;5526;42.070;24.752;2023-08-07T07:48:45;98413.34;;;27.17;43.52
10948;BME280;5526;42.070;24.752;2023-08-07T07:51:12;98406.38;;;27.13;42.62
10948;BME280;5526;42.070;24.752;2023-08-07T07:53:39;98415.44;;;26.87;42.96
10948;BME280;5526;42.070;24.752;2023-08-07T07:56:06;98410.03;;;26.84;43.87
10948;BME280;5526;42.070;24.752;2023-08-07T07:58:33;98413.88;;;27.30;42.99
10948;BME280;5526;42.070;24.752;2023-08-07T08:01:02;98419.66;;;27.32;42.70
10948;BME280;5526;42.070;24.752;2023-08-07T08:03:29;98418.69;;;27.07;43.29
10948;BME280;5526;42.070;24.752;2023-08-07T08:05:56;98422.34;;;27.32;43.35
10948;BME280;5526;42.070;24.752;2023-08-07T08:08:23;98426.00;;;27.57;42.73
10948;BME280;5526;42.070;24.752;2023-08-07T08:10:50;98418.28;;;27.62;42.60
10948;BME280;5526;42.070;24.752;2023-08-07T08:13:17;98414.34;;;27.46;42.78
10948;BME280;5526;42.070;24.752;2023-08-07T08:15:45;98416.78;;;27.68;41.96
10948;BME280;5526;42.070;24.752;2023-08-07T08:18:13;98411.72;;;27.63;42.35
10948;BME280;5526;42.070;24.752;2023-08-07T08:20:40;98409.25;;;28.16;41.33
10948;BME280;5526;42.070;24.752;2023-08-07T08:23:07;98383.34;;;28.08;40.96
10948;BME280;5526;42.070;24.752;2023-08-07T08:25:34;98384.50;;;28.14;40.19
10948;BME280;5526;42.070;24.752;2023-08-07T08:28:01;98398.06;;;28.32;40.46
10948;BME280;5526;42.070;24.752;2023-08-07T08:30:29;98407.41;;;28.48;40.47
10948;BME280;5526;42.070;24.752;2023-08-07T08:32:56;98398.91;;;28.53;40.16
10948;BME280;5526;42.070;24.752;2023-08-07T08:35:24;98398.53;;;28.97;39.98
10948;BME280;5526;42.070;24.752;2023-08-07T08:37:52;98396.22;;;29.06;39.46
10948;BME280;5526;42.070;24.752;2023-08-07T08:40:19;98389.22;;;29.15;38.97
10948;BME280;5526;42.070;24.752;2023-08-07T08:42:46;98393.47;;;29.23;38.49
10948;BME280;5526;42.070;24.752;2023-08-07T08:45:14;98380.72;;;28.78;39.28
10948;BME280;5526;42.070;24.752;2023-08-07T08:47:42;98373.38;;;28.93;38.63
10948;BME280;5526;42.070;24.752;2023-08-07T08:50:12;98375.25;;;29.31;37.39
10948;BME280;5526;42.070;24.752;2023-08-07T08:52:43;98355.06;;;29.39;35.48
10948;BME280;5526;42.070;24.752;2023-08-07T08:55:12;98361.72;;;29.27;35.93
10948;BME280;5526;42.070;24.752;2023-08-07T08:57:40;98363.97;;;29.43;35.85
10948;BME280;5526;42.070;24.752;2023-08-07T09:00:08;98368.31;;;29.12;35.19
10948;BME280;5526;42.070;24.752;2023-08-07T09:02:44;98355.88;;;29.36;36.07
10948;BME280;5526;42.070;24.752;2023-08-07T09:05:11;98355.84;;;29.43;35.08
10948;BME280;5526;42.070;24.752;2023-08-07T09:07:38;98363.22;;;29.35;34.67
10948;BME280;5526;42.070;24.752;2023-08-07T09:10:08;98361.34;;;29.15;35.02
10948;BME280;5526;42.070;24.752;2023-08-07T09:12:39;98356.59;;;29.50;35.25
10948;BME280;5526;42.070;24.752;2023-08-07T09:15:09;98329.06;;;29.62;35.27
10948;BME280;5526;42.070;24.752;2023-08-07T09:17:39;98358.94;;;30.31;33.96
10948;BME280;5526;42.070;24.752;2023-08-07T09:20:07;98355.09;;;30.25;32.89
10948;BME280;5526;42.070;24.752;2023-08-07T09:22:37;98361.56;;;29.73;33.62
10948;BME280;5526;42.070;24.752;2023-08-07T09:25:07;98321.25;;;29.78;33.71
10948;BME280;5526;42.070;24.752;2023-08-07T09:27:36;98340.91;;;29.93;34.02
10948;BME280;5526;42.070;24.752;2023-08-07T09:30:05;98339.16;;;30.34;34.55
10948;BME280;5526;42.070;24.752;2023-08-07T09:32:35;98330.72;;;30.69;33.21
10948;BME280;5526;42.070;24.752;2023-08-07T09:35:03;98341.13;;;30.77;32.37
10948;BME280;5526;42.070;24.752;2023-08-07T09:37:31;98328.94;;;30.92;32.49
10948;BME280;5526;42.070;24.752;2023-08-07T09:40:00;98336.25;;;31.02;31.53
10948;BME280;5526;42.070;24.752;2023-08-07T09:42:31;98349.19;;;31.28;31.07
10948;BME280;5526;42.070;24.752;2023-08-07T09:45:00;98337.09;;;31.33;31.18
10948;BME280;5526;42.070;24.752;2023-08-07T09:47:27;98334.81;;;31.62;30.28
10948;BME280;5526;42.070;24.752;2023-08-07T09:49:55;98329.66;;;31.37;30.91
10948;BME280;5526;42.070;24.752;2023-08-07T09:52:24;98333.88;;;31.72;30.13
10948;BME280;5526;42.070;24.752;2023-08-07T09:54:56;98323.97;;;31.88;31.41
10948;BME280;5526;42.070;24.752;2023-08-07T09:57:23;98327.13;;;32.13;30.22
10948;BME280;5526;42.070;24.752;2023-08-07T09:59:52;98328.19;;;32.19;29.33
10948;BME280;5526;42.070;24.752;2023-08-07T10:02:19;98319.25;;;32.45;29.31
10948;BME280;5526;42.070;24.752;2023-08-07T10:04:48;98319.81;;;32.83;28.04
10948;BME280;5526;42.070;24.752;2023-08-07T10:07:16;98316.59;;;32.88;27.92
10948;BME280;5526;42.070;24.752;2023-08-07T10:09:44;98325.97;;;32.11;29.18
10948;BME280;5526;42.070;24.752;2023-08-07T10:12:13;98319.16;;;31.99;29.57
10948;BME280;5526;42.070;24.752;2023-08-07T10:14:41;98304.75;;;31.99;29.07
10948;BME280;5526;42.070;24.752;2023-08-07T10:17:10;98305.88;;;32.28;28.87
10948;BME280;5526;42.070;24.752;2023-08-07T10:19:38;98304.16;;;32.64;29.68
10948;BME280;5526;42.070;24.752;2023-08-07T10:22:05;98292.56;;;32.79;28.71
10948;BME280;5526;42.070;24.752;2023-08-07T10:24:35;98299.94;;;33.25;28.30
10948;BME280;5526;42.070;24.752;2023-08-07T10:27:04;98299.03;;;32.66;28.36
10948;BME280;5526;42.070;24.752;2023-08-07T10:29:33;98293.34;;;32.34;28.41
10948;BME280;5526;42.070;24.752;2023-08-07T10:32:02;98302.03;;;32.25;28.68
10948;BME280;5526;42.070;24.752;2023-08-07T10:34:33;98291.22;;;32.68;27.87
10948;BME280;5526;42.070;24.752;2023-08-07T10:37:00;98274.25;;;32.60;28.77
10948;BME280;5526;42.070;24.752;2023-08-07T10:39:27;98278.94;;;33.22;28.57
10948;BME280;5526;42.070;24.752;2023-08-07T10:41:55;98278.00;;;33.48;27.23
10948;BME280;5526;42.070;24.752;2023-08-07T10:44:23;98276.16;;;33.45;27.58
10948;BME280;5526;42.070;24.752;2023-08-07T10:46:51;98286.75;;;33.59;27.34
10948;BME280;5526;42.070;24.752;2023-08-07T10:49:33;98277.66;;;33.26;27.31
10948;BME280;5526;42.070;24.752;2023-08-07T10:52:02;98283.47;;;33.48;27.34
10948;BME280;5526;42.070;24.752;2023-08-07T10:54:29;98279.75;;;33.58;26.78
10948;BME280;5526;42.070;24.752;2023-08-07T10:56:59;98275.16;;;33.16;27.48
10948;BME280;5526;42.070;24.752;2023-08-07T10:59:29;98268.44;;;33.40;28.21
10948;BME280;5526;42.070;24.752;2023-08-07T11:01:56;98278.56;;;33.59;28.05
10948;BME280;5526;42.070;24.752;2023-08-07T11:04:23;98263.63;;;33.83;27.47
10948;BME280;5526;42.070;24.752;2023-08-07T11:06:53;98264.03;;;33.81;27.22
10948;BME280;5526;42.070;24.752;2023-08-07T11:09:20;98258.09;;;33.86;27.05
10948;BME280;5526;42.070;24.752;2023-08-07T11:11:48;98261.09;;;33.92;26.56
10948;BME280;5526;42.070;24.752;2023-08-07T11:14:17;98255.53;;;33.95;26.82
10948;BME280;5526;42.070;24.752;2023-08-07T11:16:45;98245.88;;;33.91;27.24
10948;BME280;5526;42.070;24.752;2023-08-07T11:19:14;98254.56;;;33.34;27.99
10948;BME280;5526;42.070;24.752;2023-08-07T11:21:41;98236.34;;;33.63;26.95
10948;BME280;5526;42.070;24.752;2023-08-07T11:24:13;98236.44;;;33.60;27.21
10948;BME280;5526;42.070;24.752;2023-08-07T11:26:42;98233.97;;;33.65;27.89
10948;BME280;5526;42.070;24.752;2023-08-07T11:29:10;98239.25;;;34.08;27.35
10948;BME280;5526;42.070;24.752;2023-08-07T11:31:38;98236.50;;;34.40;27.12
10948;BME280;5526;42.070;24.752;2023-08-07T11:34:05;98234.53;;;34.56;27.29
10948;BME280;5526;42.070;24.752;2023-08-07T11:36:32;98216.44;;;34.46;26.44
10948;BME280;5526;42.070;24.752;2023-08-07T11:39:02;98208.16;;;34.34;26.48
10948;BME280;5526;42.070;24.752;2023-08-07T11:41:31;98230.47;;;34.61;26.23
10948;BME280;5526;42.070;24.752;2023-08-07T11:43:58;98225.75;;;34.33;27.24
10948;BME280;5526;42.070;24.752;2023-08-07T11:46:26;98224.28;;;34.28;27.29
10948;BME280;5526;42.070;24.752;2023-08-07T11:48:53;98225.66;;;34.52;26.50
10948;BME280;5526;42.070;24.752;2023-08-07T11:51:21;98225.66;;;34.81;26.39
10948;BME280;5526;42.070;24.752;2023-08-07T11:53:49;98234.66;;;34.65;26.58
10948;BME280;5526;42.070;24.752;2023-08-07T11:56:17;98224.66;;;34.75;26.94
10948;BME280;5526;42.070;24.752;2023-08-07T11:58:47;98221.56;;;34.89;26.65
10948;BME280;5526;42.070;24.752;2023-08-07T12:01:15;98219.44;;;34.80;27.09
10948;BME280;5526;42.070;24.752;2023-08-07T12:03:51;98209.44;;;34.74;27.08
10948;BME280;5526;42.070;24.752;2023-08-07T12:06:18;98215.88;;;34.96;26.83
10948;BME280;5526;42.070;24.752;2023-08-07T12:08:48;98215.13;;;35.08;26.28
10948;BME280;5526;42.070;24.752;2023-08-07T12:11:16;98206.41;;;35.13;26.47
10948;BME280;5526;42.070;24.752;2023-08-07T12:13:45;98202.19;;;35.37;25.98
10948;BME280;5526;42.070;24.752;2023-08-07T12:16:13;98201.09;;;35.60;26.67
10948;BME280;5526;42.070;24.752;2023-08-07T12:18:43;98194.13;;;35.18;26.57
10948;BME280;5526;42.070;24.752;2023-08-07T12:21:10;98192.81;;;34.97;26.25
10948;BME280;5526;42.070;24.752;2023-08-07T12:23:37;98196.66;;;35.12;26.24
10948;BME280;5526;42.070;24.752;2023-08-07T12:26:05;98195.06;;;34.86;26.55
10948;BME280;5526;42.070;24.752;2023-08-07T12:28:32;98197.13;;;34.82;26.79
10948;BME280;5526;42.070;24.752;2023-08-07T12:31:01;98183.47;;;34.82;26.69
10948;BME280;5526;42.070;24.752;2023-08-07T12:33:28;98187.09;;;34.63;26.76
10948;BME280;5526;42.070;24.752;2023-08-07T12:35:56;98192.94;;;34.77;25.97
10948;BME280;5526;42.070;24.752;2023-08-07T12:38:23;98185.50;;;34.78;26.41
10948;BME280;5526;42.070;24.752;2023-08-07T12:40:50;98176.75;;;35.12;26.13
10948;BME280;5526;42.070;24.752;2023-08-07T12:43:17;98188.31;;;34.74;27.02
10948;BME280;5526;42.070;24.752;2023-08-07T12:45:44;98184.94;;;35.12;26.11
10948;BME280;5526;42.070;24.752;2023-08-07T12:48:13;98186.47;;;35.13;26.43
10948;BME280;5526;42.070;24.752;2023-08-07T12:50:40;98180.38;;;35.34;26.18
10948;BME280;5526;42.070;24.752;2023-08-07T12:53:08;98185.38;;;35.10;25.98
10948;BME280;5526;42.070;24.752;2023-08-07T12:55:35;98177.69;;;34.64;26.90
10948;BME280;5526;42.070;24.752;2023-08-07T12:58:02;98181.19;;;34.93;26.74
10948;BME280;5526;42.070;24.752;2023-08-07T13:00:29;98178.38;;;35.09;26.33
10948;BME280;5526;42.070;24.752;2023-08-07T13:02:57;98169.13;;;35.44;26.53
10948;BME280;5526;42.070;24.752;2023-08-07T13:05:28;98163.41;;;35.51;25.54
10948;BME280;5526;42.070;24.752;2023-08-07T13:07:55;98172.09;;;35.50;26.83
10948;BME280;5526;42.070;24.752;2023-08-07T13:10:24;98173.38;;;35.70;26.60
10948;BME280;5526;42.070;24.752;2023-08-07T13:12:53;98166.72;;;35.71;26.01
10948;BME280;5526;42.070;24.752;2023-08-07T13:15:20;98165.38;;;35.63;25.91
10948;BME280;5526;42.070;24.752;2023-08-07T13:17:47;98158.28;;;35.41;26.49
10948;BME280;5526;42.070;24.752;2023-08-07T13:20:14;98158.88;;;35.07;26.74
10948;BME280;5526;42.070;24.752;2023-08-07T13:22:43;98148.38;;;34.93;26.59